Latest Weather Observations for Sydney - Observatory Hill

IDN60901

Issued at 2:51 pm EST Wednesday 22 September 2021 (issued every 10 minutes, with the page automatically refreshed every 10 minutes)

About weather observations | Map of Sydney area stations | Latest observations for Sydney area | Other Formats
Station Details ID: 066214 Name: SYDNEY (OBSERVATORY HILL) Lat: -33.86 Lon: 151.20 Height: 43.37 m
Data from the previous 72 hours. | See also: Recent months at Sydney - Observatory Hill

* Apparent temperature (App Temp) for Sydney - Observatory Hill is calculated using temperature observations collected at Sydney - Observatory Hill and wind observations collected at Fort Denison, as wind observations are not currently provided for Sydney - Observatory Hill.

Date/Time
EST
Temp
°C
App
Temp
°C
Dew
Point
°C
Rel
Hum
%
Delta-T
°C
Wind Press
QNH
hPa
Press
MSL
hPa
Rain since
9am
mm
Dir  Spd
km/h
Gust
km/h
Spd
kts
Gust
kts
22/02:30pm 19.3 15.5 7.7 47 5.9 SSE 17 - 9 - 1021.9 1021.9 0.0
22/02:00pm 18.7 14.7 8.4 51 5.3 S 19 - 10 - 1021.9 1021.9 0.0
22/01:30pm 18.8 14.4 7.6 48 5.7 SSE 20 - 11 - 1022.1 1022.1 0.0
22/01:00pm 18.8 14.7 8.7 52 5.2 S 20 - 11 - 1022.5 1022.5 0.0
22/12:30pm 18.3 14.0 7.1 48 5.6 SSW 19 - 10 - 1022.9 1022.9 0.0
22/12:00pm 18.3 14.1 7.4 49 5.5 SSW 19 - 10 - 1023.3 1023.3 0.0
22/11:30am 18.1 13.8 6.9 48 5.6 S 19 - 10 - 1023.5 1023.5 0.0
22/11:00am 18.1 14.0 7.8 51 5.2 S 19 - 10 - 1023.7 1023.7 0.0
22/10:30am 17.7 14.3 5.9 46 5.8 SSW 13 - 7 - 1023.9 1023.9 0.0
22/10:00am 16.9 14.4 6.4 50 5.1 SW 9 - 5 - 1023.9 1023.9 0.0
22/09:30am 16.2 12.5 6.1 51 4.9 W 15 - 8 - 1023.9 1023.9 0.0
22/09:00am 14.6 9.9 5.9 56 4.1 W 20 - 11 - 1023.8 1023.8 3.2
22/08:30am 12.4 7.7 6.0 65 3.0 W 20 - 11 - 1023.8 1023.8 3.2
22/08:00am 10.4 5.1 5.2 70 2.4 W 22 - 12 - 1023.8 1023.8 3.2
22/07:30am 9.3 2.4 4.5 72 2.1 W 30 - 16 - 1023.7 1023.7 3.2
22/07:00am 9.0 2.9 5.0 76 1.8 W 26 - 14 - 1023.7 1023.7 3.2
22/06:30am 8.5 2.1 5.3 80 1.4 W 28 - 15 - 1023.5 1023.5 3.2
22/06:00am 8.2 2.5 4.8 79 1.5 W 24 - 13 - 1023.1 1023.1 3.2
22/05:30am 8.5 3.2 4.9 78 1.6 W 22 - 12 - 1022.7 1022.7 3.2
22/05:00am 8.7 3.4 5.1 78 1.6 W 22 - 12 - 1022.4 1022.4 3.2
22/04:30am 8.9 4.1 5.6 80 1.5 W 20 - 11 - 1022.3 1022.3 3.2
22/04:00am 8.9 3.8 6.0 82 1.3 W 22 - 12 - 1022.1 1022.1 3.2
22/03:30am 9.2 4.1 6.1 81 1.4 W 22 - 12 - 1022.1 1022.1 3.2
22/03:00am 9.4 4.8 6.3 81 1.4 W 20 - 11 - 1022.1 1022.1 3.2
22/02:30am 9.5 5.1 6.4 81 1.4 W 19 - 10 - 1022.4 1022.4 3.2
22/02:00am 9.4 5.4 6.7 83 1.3 W 17 - 9 - 1022.6 1022.6 3.2
22/01:30am 9.8 6.3 7.2 84 1.2 W 15 - 8 - 1022.9 1022.9 3.2
22/01:00am 10.2 6.5 7.8 85 1.2 W 17 - 9 - 1023.3 1023.3 3.2
22/12:30am 10.6 6.4 8.4 86 1.1 SW 20 - 11 - 1023.7 1023.7 3.2
22/12:00am 11.3 5.9 6.2 71 2.4 WSW 24 - 13 - 1023.4 1023.4 2.4
 
Date/Time
EST
Temp
°C
App
Temp
°C
Dew
Point
°C
Rel
Hum
%
Delta-T
°C
Wind Press
QNH
hPa
Press
MSL
hPa
Rain since
9am
mm
Dir  Spd
km/h
Gust
km/h
Spd
kts
Gust
kts
21/11:30pm 11.3 6.6 7.8 79 1.7 WSW 22 - 12 - 1023.4 1023.4 1.2
21/11:00pm 11.3 6.0 6.6 73 2.2 SW 24 - 13 - 1023.1 1023.1 1.0
21/10:30pm 12.2 7.7 7.1 71 2.5 SW 20 - 11 - 1023.5 1023.5 0.0
21/10:00pm 13.0 8.9 6.4 64 3.1 SW 17 - 9 - 1023.2 1023.2 0.0
21/09:30pm 13.3 9.3 6.6 64 3.2 SSW 17 - 9 - 1022.9 1022.9 0.0
21/09:00pm 13.4 8.9 6.3 62 3.4 S 19 - 10 - 1022.5 1022.5 0.0
21/08:30pm 13.6 9.2 6.7 63 3.3 SSW 19 - 10 - 1022.0 1022.0 0.0
21/08:00pm 14.0 8.9 6.1 59 3.8 S 22 - 12 - 1021.7 1021.7 0.0
21/07:30pm 13.9 9.1 5.5 57 4.0 S 20 - 11 - 1021.4 1021.4 0.0
21/07:00pm 13.9 9.0 5.0 55 4.1 S 20 - 11 - 1020.9 1020.9 0.0
21/06:30pm 13.8 8.7 5.9 59 3.8 S 22 - 12 - 1020.5 1020.5 0.0
21/06:00pm 14.0 7.7 5.9 58 3.8 S 28 - 15 - 1020.1 1020.1 0.0
21/05:30pm 14.3 7.8 4.9 53 4.4 SSW 28 - 15 - 1019.8 1019.8 0.0
21/05:00pm 14.8 7.9 4.8 51 4.7 S 30 - 16 - 1019.3 1019.3 0.0
21/04:30pm 14.9 7.2 3.4 46 5.2 SSW 33 - 18 - 1019.0 1019.0 0.0
21/04:00pm 15.3 6.6 4.1 47 5.2 SSW 39 - 21 - 1018.7 1018.6 0.0
21/03:30pm 15.8 8.6 4.8 48 5.2 S 32 - 17 - 1018.3 1018.2 0.0
21/03:00pm 17.0 9.6 5.0 45 5.7 S 33 - 18 - 1017.9 1017.8 0.0
21/02:30pm 16.2 7.7 2.9 41 6.0 SSW 37 - 20 - 1017.6 1017.5 0.0
21/02:00pm 16.1 7.6 2.9 41 6.0 SSW 37 - 20 - 1017.1 1017.0 0.0
21/01:30pm 16.8 8.8 3.8 42 6.1 S 35 - 19 - 1017.0 1016.9 0.0
21/01:00pm 15.9 7.8 3.4 43 5.7 S 35 - 19 - 1017.1 1017.0 0.0
21/12:30pm 16.1 8.5 2.9 41 6.0 S 32 - 17 - 1017.0 1016.9 0.0
21/12:00pm 15.7 8.2 1.4 38 6.3 SSW 30 - 16 - 1016.8 1016.7 0.0
21/11:30am 15.4 8.2 0.4 36 6.4 SSW 28 - 15 - 1016.8 1016.7 0.0
21/11:00am 14.4 7.2 0.6 39 5.9 SSW 28 - 15 - 1016.9 1016.8 0.0
21/10:30am 14.1 7.0 1.1 41 5.6 S 28 - 15 - 1016.7 1016.6 0.0
21/10:00am 14.6 8.1 2.5 44 5.4 SSW 26 - 14 - 1016.5 1016.4 0.0
21/09:30am 14.1 7.8 1.7 43 5.4 SSW 24 - 13 - 1016.2 1016.1 0.0
21/09:00am 12.9 7.9 1.3 45 4.9 WSW 17 - 9 - 1016.0 1015.9 0.0
21/08:30am 11.8 5.3 0.3 45 4.7 WSW 24 - 13 - 1016.1 1016.0 0.0
21/08:00am 10.5 3.6 0.0 48 4.2 WSW 26 - 14 - 1015.7 1015.6 0.0
21/07:30am 10.1 1.5 0.4 51 3.9 W 35 - 19 - 1015.3 1015.2 0.0
21/07:00am 10.0 2.4 0.3 51 3.9 W 30 - 16 - 1014.9 1014.8 0.0
21/06:30am 10.3 3.4 0.1 49 4.1 WSW 26 - 14 - 1014.4 1014.3 0.0
21/06:00am 10.4 2.8 0.7 51 4.0 WSW 30 - 16 - 1013.8 1013.7 0.0
21/05:30am 10.6 3.5 1.2 52 3.9 WSW 28 - 15 - 1013.7 1013.6 0.0
21/05:00am 11.0 3.8 1.0 50 4.2 W 28 - 15 - 1013.1 1013.0 0.0
21/04:30am 11.2 7.1 2.0 53 3.9 WSW 13 - 7 - 1013.1 1013.0 0.0
21/04:00am 11.3 5.5 2.1 53 3.9 SW 22 - 12 - 1012.9 1012.8 0.0
21/03:30am 11.1 6.4 3.2 58 3.5 S 17 - 9 - 1013.0 1012.9 0.0
21/03:00am 11.3 7.4 3.3 58 3.5 SSW 13 - 7 - 1013.0 1012.9 0.0
21/02:30am 11.4 6.7 3.4 58 3.5 SSW 17 - 9 - 1013.1 1013.0 0.0
21/02:00am 11.5 8.0 3.3 57 3.6 S 11 - 6 - 1012.9 1012.8 0.0
21/01:30am 11.9 8.0 3.2 55 3.8 SSW 13 - 7 - 1012.9 1012.8 0.0
21/01:00am 12.1 8.5 3.1 54 4.0 SSW 11 - 6 - 1013.1 1013.0 0.0
21/12:30am 12.6 8.3 3.0 52 4.2 SSW 15 - 8 - 1013.2 1013.1 0.0
21/12:00am 12.9 8.9 2.7 50 4.5 SSW 13 - 7 - 1013.6 1013.5 0.0
 
Date/Time
EST
Temp
°C
App
Temp
°C
Dew
Point
°C
Rel
Hum
%
Delta-T
°C
Wind Press
QNH
hPa
Press
MSL
hPa
Rain since
9am
mm
Dir  Spd
km/h
Gust
km/h
Spd
kts
Gust
kts
20/11:30pm 13.0 8.3 3.1 51 4.4 W 17 - 9 - 1013.4 1013.3 0.0
20/11:00pm 13.0 7.9 3.9 54 4.1 W 20 - 11 - 1013.2 1013.1 0.0
20/10:30pm 13.1 6.8 3.7 53 4.2 WNW 26 - 14 - 1013.5 1013.4 0.0
20/10:00pm 12.8 6.3 4.5 57 3.8 W 28 - 15 - 1013.6 1013.5 0.0
20/09:30pm 12.9 6.1 5.1 59 3.6 W 30 - 16 - 1013.7 1013.6 0.0
20/09:00pm 13.3 5.9 5.2 58 3.8 W 33 - 18 - 1013.4 1013.3 0.0
20/08:30pm 13.9 5.9 3.7 50 4.6 W 35 - 19 - 1013.3 1013.2 0.0
20/08:00pm 14.0 5.1 3.2 48 4.9 W 39 - 21 - 1012.9 1012.8 0.0
20/07:30pm 15.0 8.1 4.4 49 4.9 WSW 30 - 16 - 1012.3 1012.2 0.0
20/07:00pm 18.1 11.1 6.0 45 6.0 WSW 32 - 17 - 1011.2 1011.1 0.0
20/06:30pm 21.3 14.0 4.4 33 8.2 W 32 - 17 - 1009.7 1009.6 0.0
20/06:00pm 22.5 14.9 2.6 27 9.5 WNW 32 - 17 - 1008.8 1008.8 0.0
20/05:30pm 22.7 16.2 2.8 27 9.5 W 26 - 14 - 1008.5 1008.5 0.0
20/05:00pm 23.4 16.0 1.7 24 10.2 WNW 30 - 16 - 1008.3 1008.3 0.0
20/04:30pm 23.8 16.0 1.4 23 10.5 WNW 32 - 17 - 1007.9 1007.9 0.0
20/04:00pm 24.1 16.3 1.7 23 10.6 WNW 32 - 17 - 1007.7 1007.7 0.0
20/03:30pm 25.4 16.7 2.2 22 11.2 W 37 - 20 - 1007.6 1007.6 0.0
20/03:00pm 26.0 18.9 1.3 20 11.8 WNW 28 - 15 - 1007.5 1007.5 0.0
20/02:30pm 26.2 18.6 0.8 19 12.0 NW 30 - 16 - 1007.7 1007.7 0.0
20/02:00pm 25.9 18.4 1.2 20 11.7 WNW 30 - 16 - 1008.0 1008.0 0.0
20/01:30pm 25.9 19.3 1.9 21 11.5 WNW 26 - 14 - 1008.4 1008.4 0.0
20/01:00pm 25.7 19.9 2.4 22 11.3 WNW 22 - 12 - 1009.2 1009.1 0.0
20/12:30pm 25.2 18.2 2.0 22 11.1 WNW 28 - 15 - 1010.1 1010.0 0.0
20/12:00pm 25.3 19.9 6.5 30 9.8 NNW 24 - 13 - 1010.8 1010.7 0.0
20/11:30am 24.4 19.2 5.7 30 9.5 NW 22 - 12 - 1011.6 1011.5 0.0
20/11:00am 24.4 20.5 5.2 29 9.7 N 15 - 8 - 1012.4 1012.3 0.0
20/10:30am 23.0 17.6 4.5 30 9.1 N 22 - 12 - 1012.9 1012.8 0.0
20/10:00am 22.6 17.8 5.5 33 8.6 N 20 - 11 - 1013.4 1013.3 0.0
20/09:30am 21.6 16.1 5.9 36 7.9 N 24 - 13 - 1013.9 1013.8 0.0
20/09:00am 20.5 15.4 6.1 39 7.2 N 22 - 12 - 1014.5 1014.4 0.0
20/08:30am 18.6 12.5 4.8 40 6.6 NNW 26 - 14 - 1014.8 1014.7 0.0
20/08:00am 17.2 10.4 4.9 44 5.9 NNW 30 - 16 - 1014.9 1014.8 0.0
20/07:30am 16.4 9.8 4.1 44 5.7 N 28 - 15 - 1015.0 1014.9 0.0
20/07:00am 15.7 9.7 3.5 44 5.6 N 24 - 13 - 1014.9 1014.8 0.0
20/06:30am 15.3 9.7 3.5 45 5.4 NNW 22 - 12 - 1014.9 1014.8 0.0
20/06:00am 15.1 9.8 3.0 44 5.5 NNW 20 - 11 - 1014.9 1014.8 0.0
20/05:30am 14.6 8.7 3.7 48 5.0 NNW 24 - 13 - 1015.0 1014.9 0.0
20/05:00am 14.9 9.0 3.7 47 5.1 NNW 24 - 13 - 1015.2 1015.1 0.0
20/04:30am 15.1 9.3 4.2 48 5.0 NNW 24 - 13 - 1015.2 1015.1 0.0
20/04:00am 14.9 9.4 4.0 48 5.0 NNW 22 - 12 - 1015.5 1015.4 0.0
20/03:30am 15.1 9.3 4.2 48 5.0 NNW 24 - 13 - 1015.6 1015.5 0.0
20/03:00am 15.1 10.2 4.2 48 5.0 NNW 19 - 10 - 1015.9 1015.8 0.0
20/02:30am 14.8 11.5 4.5 50 4.8 NNW 11 - 6 - 1016.3 1016.2 0.0
20/02:00am 14.4 11.8 4.4 51 4.6 NNW 7 - 4 - 1016.8 1016.7 0.0
20/01:30am 15.0 11.0 5.0 51 4.7 NNW 15 - 8 - 1017.4 1017.3 0.0
20/01:00am 14.6 13.1 5.1 53 4.5 WSW 2 - 1 - 1017.9 1017.8 0.0
20/12:30am 14.6 13.2 5.4 54 4.4 W 2 - 1 - 1018.2 1018.1 0.0
20/12:00am 14.2 12.1 5.6 56 4.1 W 6 - 3 - 1018.4 1018.3 0.0
 
Date/Time
EST
Temp
°C
App
Temp
°C
Dew
Point
°C
Rel
Hum
%
Delta-T
°C
Wind Press
QNH
hPa
Press
MSL
hPa
Rain since
9am
mm
Dir  Spd
km/h
Gust
km/h
Spd
kts
Gust
kts
19/11:30pm 14.5 12.2 5.6 55 4.2 W 7 - 4 - 1018.6 1018.5 0.0
19/11:00pm 14.8 12.5 5.9 55 4.3 NW 7 - 4 - 1018.7 1018.6 0.0
19/10:30pm 15.9 12.8 3.4 43 5.7 W 9 - 5 - 1019.0 1019.0 0.0
19/10:00pm 17.2 13.6 2.8 38 6.6 WNW 11 - 6 - 1019.1 1019.1 0.0
19/09:30pm 17.1 13.8 2.7 38 6.6 NW 9 - 5 - 1019.1 1019.1 0.0
19/09:00pm 17.4 12.0 2.2 36 6.9 W 20 - 11 - 1018.9 1018.9 0.0
19/08:30pm 17.2 14.3 2.8 38 6.6 NW 7 - 4 - 1019.0 1019.0 0.0
19/08:00pm 17.7 14.8 2.5 36 6.9 NW 7 - 4 - 1019.0 1019.0 0.0
19/07:30pm 18.2 14.7 1.3 32 7.6 WNW 9 - 5 - 1018.8 1018.7 0.0
19/07:00pm 18.8 13.9 1.8 32 7.7 W 17 - 9 - 1018.5 1018.4 0.0
19/06:30pm 19.1 14.3 2.5 33 7.7 WNW 17 - 9 - 1018.1 1018.0 0.0
19/06:00pm 19.7 16.3 2.1 31 8.1 WNW 9 - 5 - 1017.9 1017.8 0.0
19/05:30pm 20.9 15.5 2.2 29 8.7 WNW 20 - 11 - 1017.7 1017.6 0.0
19/05:00pm 21.4 18.0 1.7 27 9.1 SW 9 - 5 - 1017.3 1017.2 0.0
19/04:30pm 21.9 19.0 1.6 26 9.4 WNW 6 - 3 - 1017.1 1017.0 0.0
19/04:00pm 22.3 18.7 2.9 28 9.2 W 11 - 6 - 1017.1 1017.0 0.0
19/03:30pm 23.7 19.4 3.1 26 10.0 WNW 15 - 8 - 1017.1 1017.0 0.0
19/03:00pm 23.8 19.4 2.6 25 10.1 WNW 15 - 8 - 1017.3 1017.2 0.0

Latest Capital City Observations: Canberra | Sydney | Melbourne | Brisbane | Adelaide | Perth | Hobart | Darwin

Other formats

Comma delimited format used in spreadsheet applications
http://www.bom.gov.au/fwo/IDN60901/IDN60901.94768.axf

JavaScript Object Notation format (JSON) in row-major order
http://www.bom.gov.au/fwo/IDN60901/IDN60901.94768.json

Data quality

Most of these data are generated automatically and are frequently updated. Quality checks on data are not normally performed. It is possible for incorrect values to appear. Refer to information at About Latest Weather Observations and please check the disclaimer before using these data.